Time;durP1;ratioP1;P1;durP2;ratioP2;P2;SDS_P1;SDS_P2;PMS_P1;PMS_P2;Temp;Humidity;BMP_temperature;BMP_pressure;BME280_temperature;BME280_humidity;BME280_pressure;Samples;Min_cycle;Max_cycle;Signal;HPM_P1;HPM_P2
2022/05/25 00:02:33;;;;;;;5.05;2.45;;;;;;;14.52;72.54;101116.31;5045989;28;20053;-45
2022/05/25 00:05:21;;;;;;;4.65;2.45;;;;;;;14.48;72.66;101118.84;5043424;28;20045;-45
2022/05/25 00:07:51;;;;;;;6.30;2.67;;;;;;;14.47;72.73;101126.22;5054346;28;20049;-47
2022/05/25 00:10:40;;;;;;;5.45;2.78;;;;;;;14.47;72.65;101130.88;5053737;28;20139;-45
2022/05/25 00:13:28;;;;;;;4.03;2.65;;;;;;;14.46;72.80;101123.78;5033638;28;20053;-46
2022/05/25 00:16:15;;;;;;;5.60;3.00;;;;;;;14.44;72.60;101129.53;5032362;28;20493;-46
2022/05/25 00:21:53;;;;;;;4.82;2.80;;;;;;;14.41;72.61;101134.78;5035653;28;20041;-44
2022/05/25 00:24:21;;;;;;;5.75;2.72;;;;;;;14.40;72.66;101133.94;5037419;28;20485;-47
2022/05/25 00:26:49;;;;;;;6.80;2.97;;;;;;;14.40;72.73;101141.38;5035439;28;20128;-46
2022/05/25 00:29:16;;;;;;;5.85;2.90;;;;;;;14.39;72.67;101139.75;5036127;28;20404;-46
2022/05/25 00:31:44;;;;;;;4.55;2.80;;;;;;;14.38;72.80;101138.94;5035499;28;20069;-46
2022/05/25 00:34:12;;;;;;;8.65;3.15;;;;;;;14.37;73.12;101141.94;5032747;28;20099;-45
2022/05/25 00:36:40;;;;;;;8.50;3.00;;;;;;;14.35;73.04;101142.22;5034084;28;20051;-46
2022/05/25 00:39:10;;;;;;;4.18;2.83;;;;;;;14.35;72.80;101142.22;5033379;28;20478;-46
2022/05/25 00:41:39;;;;;;;6.63;3.20;;;;;;;14.34;73.13;101148.81;5034421;28;20045;-45
2022/05/25 00:44:23;;;;;;;7.28;3.38;;;;;;;14.34;73.05;101146.06;5033714;28;20053;-44
2022/05/25 00:47:02;;;;;;;6.93;3.42;;;;;;;14.33;73.06;101144.41;5033638;28;20064;-48
2022/05/25 00:49:50;;;;;;;4.95;2.97;;;;;;;14.29;73.18;101151.59;5035556;28;20095;-48
2022/05/25 00:52:19;;;;;;;6.53;3.40;;;;;;;14.28;73.33;101149.94;5043063;28;20096;-47
2022/05/25 00:55:07;;;;;;;8.45;3.65;;;;;;;14.27;73.61;101148.31;5054831;28;20049;-42
2022/05/25 00:57:46;;;;;;;6.55;3.33;;;;;;;14.25;73.69;101140.38;5038398;28;20041;-45
2022/05/25 01:00:34;;;;;;;5.80;3.15;;;;;;;14.27;73.71;101148.31;5037310;28;20219;-45
2022/05/25 01:03:21;;;;;;;5.85;3.10;;;;;;;14.23;73.82;101147.25;5049810;28;20053;-47
2022/05/25 01:06:09;;;;;;;5.93;3.03;;;;;;;14.22;74.19;101146.44;5042525;28;20055;-49
2022/05/25 01:09:16;;;;;;;7.43;3.53;;;;;;;14.21;74.00;101150.25;5033848;28;20055;-47
2022/05/25 01:12:07;;;;;;;5.68;2.97;;;;;;;14.18;74.06;101152.75;5043182;28;20045;-47
2022/05/25 01:15:19;;;;;;;7.15;3.15;;;;;;;14.18;74.31;101160.97;5052094;28;20053;-47
2022/05/25 01:18:19;;;;;;;5.82;3.28;;;;;;;14.17;74.39;101164.84;5054270;28;20064;-47
2022/05/25 01:21:13;;;;;;;6.03;3.60;;;;;;;14.14;74.58;101157.16;5040129;28;20488;-47
2022/05/25 01:24:30;;;;;;;5.60;3.33;;;;;;;14.13;74.55;101159.09;5041588;28;20067;-47
2022/05/25 01:27:32;;;;;;;10.15;3.88;;;;;;;14.14;74.53;101162.63;5054191;28;20414;-44
2022/05/25 01:30:28;;;;;;;5.78;3.42;;;;;;;14.10;74.92;101164.34;5046095;28;20044;-46
2022/05/25 01:33:18;;;;;;;;;;;;;;;14.11;74.77;101164.03;5035336;28;20103;-46
2022/05/25 01:36:21;;;;;;;7.03;3.53;;;;;;;14.09;74.95;101159.94;5035624;28;19928;-45
2022/05/25 01:39:13;;;;;;;8.02;3.45;;;;;;;14.07;75.16;101166.53;5033294;28;20039;-47
2022/05/25 01:42:20;;;;;;;7.43;3.70;;;;;;;14.04;75.06;101161.59;5031844;28;20480;-45
2022/05/25 01:45:09;;;;;;;7.43;3.75;;;;;;;14.01;75.33;101164.91;5032448;28;20042;-47
2022/05/25 01:47:59;;;;;;;4.82;3.40;;;;;;;13.97;75.62;101161.09;5033705;28;20048;-48
2022/05/25 01:50:45;;;;;;;8.13;4.10;;;;;;;13.96;75.71;101162.19;5028908;28;20072;-44
2022/05/25 01:53:15;;;;;;;7.15;3.85;;;;;;;13.94;75.84;101167.13;5038107;28;20052;-47
2022/05/25 01:55:53;;;;;;;7.53;4.05;;;;;;;13.93;75.92;101162.78;5052368;28;20048;-44
2022/05/25 01:58:22;;;;;;;7.00;4.10;;;;;;;13.91;75.99;101178.66;5053319;28;20052;-45
2022/05/25 02:00:55;;;;;;;7.30;4.07;;;;;;;13.89;75.99;101171.84;5044692;28;20034;-46
2022/05/25 02:06:29;;;;;;;;;;;;;;;13.87;76.15;101174.03;5034825;28;20038;-46
2022/05/25 02:09:21;;;;;;;9.02;4.07;;;;;;;13.86;76.31;101167.75;5032031;28;19971;-46
2022/05/25 02:12:01;;;;;;;7.47;3.97;;;;;;;13.85;76.34;101171.56;5049149;28;20076;-48
2022/05/25 02:14:49;;;;;;;6.53;4.07;;;;;;;13.83;76.35;101171.06;5038341;28;20053;-43
2022/05/25 02:18:00;;;;;;;8.35;4.30;;;;;;;13.82;76.59;101177.63;5051437;28;20048;-49
2022/05/25 02:21:00;;;;;;;7.80;4.13;;;;;;;13.81;76.51;101173.25;5047069;28;20068;-47
2022/05/25 02:24:01;;;;;;;8.93;4.38;;;;;;;13.80;76.61;101168.84;5035616;28;20432;-46
2022/05/25 02:27:09;;;;;;;7.22;4.05;;;;;;;13.81;76.22;101181.47;5030140;28;20120;-47
2022/05/25 02:30:16;;;;;;;6.70;4.05;;;;;;;13.73;76.31;101176.56;5037743;28;20045;-47
2022/05/25 02:33:00;;;;;;;8.23;4.68;;;;;;;13.67;76.94;101188.66;5055755;28;20059;-49
2022/05/25 02:35:48;;;;;;;7.43;4.28;;;;;;;13.67;76.83;101194.94;5034691;28;20044;-50
2022/05/25 02:38:16;;;;;;;7.95;4.53;;;;;;;13.65;76.76;101188.91;5039290;28;20053;-48
2022/05/25 02:41:13;;;;;;;9.13;4.30;;;;;;;13.67;77.16;101200.41;5033143;28;20111;-46
2022/05/25 02:44:02;;;;;;;7.93;4.10;;;;;;;13.68;77.01;101206.69;5032998;28;20048;-46
2022/05/25 02:46:30;;;;;;;8.63;4.20;;;;;;;13.69;76.81;101200.97;5033312;28;20080;-47
2022/05/25 02:48:58;;;;;;;7.57;4.47;;;;;;;13.69;76.72;101200.16;5049929;28;20045;-46
2022/05/25 02:51:26;;;;;;;8.90;4.80;;;;;;;13.69;76.58;101203.69;5051542;28;20045;-43
2022/05/25 02:53:54;;;;;;;8.52;4.55;;;;;;;13.64;76.45;101207.25;5051199;28;20135;-46
2022/05/25 02:56:22;;;;;;;7.53;4.03;;;;;;;13.61;76.41;101207.84;5052741;28;20037;-45
2022/05/25 02:58:49;;;;;;;6.85;4.40;;;;;;;13.59;76.67;101210.03;5053536;28;20131;-48
2022/05/25 03:01:18;;;;;;;7.93;4.32;;;;;;;13.57;76.58;101206.75;5041400;28;20447;-47
2022/05/25 03:03:45;;;;;;;9.68;4.85;;;;;;;13.57;76.82;101211.41;5037551;28;20061;-47
2022/05/25 03:06:14;;;;;;;7.78;4.22;;;;;;;13.57;76.66;101211.41;5038046;28;20069;-47
2022/05/25 03:08:42;;;;;;;7.65;4.28;;;;;;;13.55;77.05;101219.88;5043954;28;20372;-48
2022/05/25 03:11:22;;;;;;;8.60;4.28;;;;;;;13.53;77.09;101219.34;5053462;28;20554;-47
2022/05/25 03:14:04;;;;;;;9.57;4.43;;;;;;;13.54;76.89;101218.25;5055615;28;20056;-44
2022/05/25 03:16:43;;;;;;;7.00;4.50;;;;;;;13.56;77.15;101232.47;5055323;28;20049;-47
2022/05/25 03:19:31;;;;;;;7.45;3.92;;;;;;;13.54;76.51;101234.69;5051728;28;20487;-48
2022/05/25 03:22:14;;;;;;;8.48;3.72;;;;;;;13.52;76.63;101225.94;5054492;28;20067;-46
2022/05/25 03:24:52;;;;;;;7.18;4.05;;;;;;;13.49;76.50;101228.38;5035379;28;20053;-46
2022/05/25 03:27:40;;;;;;;6.90;4.20;;;;;;;13.41;76.82;101232.50;5036774;28;20436;-45
2022/05/25 03:30:28;;;;;;;9.80;4.30;;;;;;;13.38;77.22;101227.59;5036803;28;20388;-46
2022/05/25 03:33:15;;;;;;;10.23;4.32;;;;;;;13.39;77.43;101237.44;5036501;28;20053;-45
2022/05/25 03:36:03;;;;;;;8.52;4.03;;;;;;;13.37;77.07;101224.06;5037150;28;20053;-47
2022/05/25 03:38:31;;;;;;;7.35;4.15;;;;;;;13.36;77.14;101227.06;5049100;28;20082;-48
2022/05/25 03:41:20;;;;;;;9.15;3.88;;;;;;;13.38;76.95;101227.59;5055793;28;20045;-46
2022/05/25 03:44:08;;;;;;;6.40;3.85;;;;;;;13.39;77.21;101238.25;5051890;28;20495;-47
2022/05/25 03:46:55;;;;;;;7.18;4.07;;;;;;;13.41;76.53;101235.25;5054801;28;20098;-47
2022/05/25 03:49:24;;;;;;;11.43;4.40;;;;;;;13.43;76.96;101246.75;5037201;28;20044;-46
2022/05/25 03:51:52;;;;;;;8.45;4.18;;;;;;;13.41;76.54;101241.53;5035937;28;20144;-48
2022/05/25 03:54:19;;;;;;;9.40;4.25;;;;;;;13.40;76.63;101244.56;5034643;28;20507;-47
2022/05/25 03:56:47;;;;;;;8.20;3.83;;;;;;;13.40;76.71;101252.78;5046624;28;20041;-47
2022/05/25 03:59:15;;;;;;;7.10;3.80;;;;;;;13.39;76.80;101245.66;5035298;28;20037;-47
2022/05/25 04:01:43;;;;;;;8.63;3.90;;;;;;;13.39;76.16;101251.13;5036846;28;20426;-47
2022/05/25 04:04:11;;;;;;;8.38;4.18;;;;;;;13.38;76.40;101260.44;5035323;28;20145;-48
2022/05/25 04:06:39;;;;;;;7.18;4.07;;;;;;;13.39;76.65;101262.06;5017925;28;20053;-43
2022/05/25 04:09:10;;;;;;;8.65;4.18;;;;;;;13.38;76.20;101258.53;5050530;28;20048;-49
2022/05/25 04:11:55;;;;;;;7.38;3.67;;;;;;;13.37;76.25;101261.53;5054292;28;20529;-47
2022/05/25 04:14:31;;;;;;;8.45;3.72;;;;;;;13.38;76.15;101260.44;5052365;28;20503;-47
2022/05/25 04:16:59;;;;;;;8.50;4.00;;;;;;;13.35;76.27;101264.56;5055651;28;20139;-47
2022/05/25 04:19:46;;;;;;;10.02;4.10;;;;;;;13.33;76.53;101261.28;5052439;28;20048;-46
2022/05/25 04:22:35;;;;;;;6.63;3.30;;;;;;;13.32;76.09;101267.00;5055386;28;20049;-47
2022/05/25 04:25:24;;;;;;;6.78;3.60;;;;;;;13.30;75.93;101260.97;5052947;28;20046;-48
2022/05/25 04:28:12;;;;;;;6.90;3.72;;;;;;;13.29;76.24;101262.09;5044611;28;20049;-48
2022/05/25 04:30:59;;;;;;;7.78;3.38;;;;;;;13.27;76.59;101264.25;5044398;28;20099;-47
2022/05/25 04:33:47;;;;;;;5.93;3.20;;;;;;;13.24;76.46;101262.88;5039468;28;20421;-48
2022/05/25 04:36:42;;;;;;;8.60;3.38;;;;;;;13.24;76.59;101267.53;5034874;28;20041;-49
2022/05/25 04:39:30;;;;;;;9.13;3.00;;;;;;;13.22;76.65;101271.34;5036130;28;20041;-47
2022/05/25 04:42:18;;;;;;;5.32;2.83;;;;;;;13.20;77.28;101272.72;5034482;28;20045;-46
2022/05/25 04:45:07;;;;;;;11.13;3.67;;;;;;;13.19;77.19;101280.13;5035014;28;20045;-47
2022/05/25 04:47:57;;;;;;;8.32;3.55;;;;;;;13.20;77.12;101281.78;5034707;28;20050;-44
2022/05/25 04:50:45;;;;;;;7.15;3.15;;;;;;;13.19;77.02;101276.56;5036442;28;20037;-44
2022/05/25 04:53:33;;;;;;;7.80;3.17;;;;;;;13.18;77.23;101281.22;5036230;28;20463;-48
2022/05/25 04:59:27;;;;;;;7.45;3.28;;;;;;;13.16;77.96;101285.34;5043790;28;20045;-45
2022/05/25 05:02:15;;;;;;;7.35;3.10;;;;;;;13.16;77.53;101288.88;5052260;28;20102;-45
2022/05/25 05:05:03;;;;;;;9.98;3.05;;;;;;;13.17;77.66;101290.50;5032914;28;20088;-48
2022/05/25 05:07:50;;;;;;;7.97;3.00;;;;;;;13.19;78.04;101293.00;5033704;28;20184;-47
2022/05/25 05:10:38;;;;;;;8.30;2.95;;;;;;;13.18;78.54;101297.66;5041056;28;20506;-49
2022/05/25 05:13:07;;;;;;;8.68;3.40;;;;;;;13.17;78.20;101293.25;5048395;28;20098;-48
2022/05/25 05:15:40;;;;;;;9.40;3.30;;;;;;;13.19;78.54;101302.00;5035166;28;20033;-47
2022/05/25 05:18:08;;;;;;;10.20;3.20;;;;;;;13.20;78.55;101294.63;5033596;28;20080;-49
2022/05/25 05:21:02;;;;;;;5.55;2.40;;;;;;;13.44;81.07;101292.16;5032172;28;20041;-46
2022/05/25 05:23:30;;;;;;;7.68;2.97;;;;;;;13.61;81.21;101281.75;5036061;28;20492;-46
2022/05/25 05:25:58;;;;;;;7.50;3.00;;;;;;;13.55;80.36;101288.34;5034032;28;20042;-46
2022/05/25 05:28:31;;;;;;;9.40;2.88;;;;;;;13.68;81.93;101286.94;5016814;28;20492;-47
2022/05/25 05:31:02;;;;;;;6.43;3.08;;;;;;;13.89;80.53;101284.97;5039845;28;20049;-46
2022/05/25 05:33:50;;;;;;;6.07;3.10;;;;;;;13.97;79.50;101287.09;5052746;28;20058;-46
2022/05/25 05:36:31;;;;;;;7.50;3.35;;;;;;;13.95;78.33;101281.13;5051455;28;20048;-47
2022/05/25 05:39:20;;;;;;;5.93;2.67;;;;;;;13.81;79.37;101277.31;5045712;28;20049;-46
2022/05/25 05:41:48;;;;;;;5.65;2.40;;;;;;;13.85;80.37;101276.50;5016607;28;20400;-46
2022/05/25 05:44:49;;;;;;;7.70;3.00;;;;;;;13.95;79.76;101274.78;5033243;28;20412;-47
2022/05/25 05:47:42;;;;;;;8.90;3.00;;;;;;;14.01;80.83;101274.50;5034326;28;20064;-46
2022/05/25 05:50:30;;;;;;;7.90;2.78;;;;;;;14.10;79.67;101273.94;5032632;28;20048;-47
2022/05/25 05:53:18;;;;;;;6.53;3.08;;;;;;;14.13;78.91;101274.19;5021618;28;20068;-46
2022/05/25 05:55:53;;;;;;;6.97;3.13;;;;;;;14.04;78.37;101271.19;5036257;28;20128;-46
2022/05/25 05:58:41;;;;;;;8.52;3.72;;;;;;;14.02;77.95;101270.69;5029981;28;20423;-48
2022/05/25 06:01:28;;;;;;;5.97;2.55;;;;;;;13.84;79.47;101274.03;5020282;28;20041;-46
2022/05/25 06:03:56;;;;;;;8.35;2.78;;;;;;;13.93;79.50;101274.28;5052013;28;20136;-44
2022/05/25 06:06:44;;;;;;;7.60;2.45;;;;;;;14.00;79.65;101283.84;4335444;28;10000573;-48
2022/05/25 06:09:32;;;;;;;10.85;4.22;;;;;;;13.92;78.89;101280.84;5014896;28;20401;-49
2022/05/25 06:12:19;;;;;;;9.55;3.33;;;;;;;13.82;79.20;101278.94;5038107;28;20384;-49
2022/05/25 06:14:47;;;;;;;9.65;3.60;;;;;;;13.80;79.47;101286.63;5031148;28;20049;-49
2022/05/25 06:20:41;;;;;;;8.55;3.53;;;;;;;14.02;80.25;101295.34;5030521;28;20133;-49
2022/05/25 06:23:29;;;;;;;8.23;2.85;;;;;;;14.23;78.77;101300.72;5029984;28;20046;-49
2022/05/25 06:26:17;;;;;;;8.30;2.75;;;;;;;14.44;78.43;101307.75;5032110;28;20060;-47
2022/05/25 06:29:05;;;;;;;4.85;2.20;;;;;;;14.48;78.01;101297.06;5018326;28;20091;-47
2022/05/25 06:31:53;;;;;;;11.32;4.57;;;;;;;14.47;77.14;101312.66;5042654;28;20048;-45
2022/05/25 06:34:41;;;;;;;8.52;3.83;;;;;;;14.26;77.56;101308.38;5030158;28;20060;-47
2022/05/25 06:37:15;;;;;;;6.85;3.22;;;;;;;14.11;78.24;101308.44;5029452;28;20543;-51
2022/05/25 06:39:43;;;;;;;7.20;2.47;;;;;;;14.19;79.30;101303.22;5030074;28;20037;-45
2022/05/25 06:42:11;;;;;;;8.85;2.42;;;;;;;14.40;78.67;101311.34;5041552;28;20384;-47
2022/05/25 06:44:48;;;;;;;8.40;3.28;;;;;;;14.46;77.84;101316.53;5028817;28;20048;-47
2022/05/25 06:47:19;;;;;;;4.50;2.40;;;;;;;14.44;78.31;101318.72;5030102;28;20049;-47
2022/05/25 06:49:47;;;;;;;6.63;3.03;;;;;;;14.52;77.90;101317.31;5029712;28;20153;-46
2022/05/25 06:52:15;;;;;;;10.90;4.10;;;;;;;14.38;77.84;101319.88;5012226;28;20091;-48
2022/05/25 06:54:43;;;;;;;8.85;3.78;;;;;;;14.40;78.49;101316.81;5036625;28;20045;-48
2022/05/25 06:57:12;;;;;;;11.07;4.32;;;;;;;14.30;78.06;101325.91;5048230;28;20049;-46
2022/05/25 06:59:49;;;;;;;4.88;2.00;;;;;;;14.38;78.72;101328.09;5040474;28;20073;-49
2022/05/25 07:02:37;;;;;;;5.68;2.08;;;;;;;14.48;78.96;101329.97;5037256;28;20053;-49
2022/05/25 07:05:05;;;;;;;8.60;3.78;;;;;;;14.51;77.59;101329.38;5046750;28;20068;-47
2022/05/25 07:07:53;;;;;;;7.68;3.65;;;;;;;14.52;78.01;101331.00;5049007;28;20051;-47
2022/05/25 07:10:22;;;;;;;6.63;2.72;;;;;;;14.94;77.22;101326.16;5034492;28;20079;-46
2022/05/25 07:13:04;;;;;;;4.95;2.15;;;;;;;15.07;76.32;101329.06;5038665;28;20052;-48
2022/05/25 07:15:32;;;;;;;8.27;2.72;;;;;;;15.21;76.08;101336.66;5042858;28;20042;-49
2022/05/25 07:18:20;;;;;;;8.27;2.60;;;;;;;15.45;74.98;101336.72;5031473;28;20144;-47
2022/05/25 07:21:25;;;;;;;10.73;3.80;;;;;;;15.40;74.02;101345.81;5042504;28;20059;-46
2022/05/25 07:23:55;;;;;;;9.05;3.58;;;;;;;15.54;74.24;101341.31;5031645;28;20428;-48
2022/05/25 07:26:43;;;;;;;12.98;4.72;;;;;;;15.71;72.37;101346.41;5029412;28;20046;-45
2022/05/25 07:29:31;;;;;;;9.10;3.08;;;;;;;15.85;72.76;101348.44;5031870;28;20411;-48
2022/05/25 07:32:03;;;;;;;11.38;4.53;;;;;;;15.62;73.26;101361.03;5033734;28;20038;-47
2022/05/25 07:34:54;;;;;;;14.60;6.72;;;;;;;15.36;73.76;101360.41;5032571;28;20053;-47
2022/05/25 07:37:50;;;;;;;12.02;6.05;;;;;;;15.02;74.73;101353.78;5040969;28;20056;-46
2022/05/25 07:40:40;;;;;;;16.35;6.53;;;;;;;15.07;75.78;101358.44;5052624;28;20049;-46
2022/05/25 07:43:30;;;;;;;10.48;4.05;;;;;;;15.12;75.91;101358.38;5033087;28;20048;-46
2022/05/25 07:46:18;;;;;;;12.98;6.07;;;;;;;15.04;75.85;101354.34;5034302;28;20396;-47
2022/05/25 07:49:06;;;;;;;13.43;6.45;;;;;;;14.87;76.40;101353.91;5035954;28;20512;-48
2022/05/25 07:51:34;;;;;;;14.80;5.60;;;;;;;14.85;76.33;101351.44;5037327;28;20178;-47
2022/05/25 07:54:03;;;;;;;11.93;5.68;;;;;;;14.84;76.55;101359.94;5035995;28;20179;-48
2022/05/25 07:56:34;;;;;;;11.13;5.07;;;;;;;14.94;76.19;101359.09;5023234;28;20033;-48
2022/05/25 07:59:10;;;;;;;14.75;6.45;;;;;;;14.73;76.54;101372.09;5051488;28;20044;-49
2022/05/25 08:07:33;;;;;;;14.45;4.50;;;;;;;14.83;78.03;101370.09;5046811;28;20068;-45
2022/05/25 08:10:11;;;;;;;13.75;4.75;;;;;;;15.05;77.31;101364.19;5035861;28;20057;-43
2022/05/25 08:12:41;;;;;;;14.20;4.95;;;;;;;15.47;75.50;101371.03;5012544;28;20037;-45
2022/05/25 08:15:29;;;;;;;14.23;4.88;;;;;;;15.70;74.97;101368.66;5040263;28;20048;-46
2022/05/25 08:18:07;;;;;;;13.70;4.95;;;;;;;15.66;74.37;101370.34;5037837;28;20053;-48
2022/05/25 08:20:44;;;;;;;11.85;4.53;;;;;;;15.45;74.99;101372.44;5050528;28;20041;-46
2022/05/25 08:23:32;;;;;;;11.38;4.50;;;;;;;15.36;75.29;101372.22;5031983;28;20045;-50
2022/05/25 08:26:00;;;;;;;10.15;4.07;;;;;;;15.76;75.36;101370.25;5034866;28;20048;-45
2022/05/25 08:28:47;;;;;;;12.63;4.10;;;;;;;15.86;74.12;101369.34;5034470;28;20054;-48
2022/05/25 08:31:15;;;;;;;11.88;3.80;;;;;;;15.73;73.97;101371.66;5034458;28;20140;-47
2022/05/25 08:34:04;;;;;;;11.95;4.88;;;;;;;15.51;73.82;101368.50;5031803;28;20045;-47
2022/05/25 08:36:33;;;;;;;7.60;3.15;;;;;;;15.48;75.71;101366.34;5033329;28;20053;-46
2022/05/25 08:39:21;;;;;;;11.38;3.97;;;;;;;15.60;74.06;101366.78;5034326;28;20045;-47
2022/05/25 08:41:53;;;;;;;9.65;3.70;;;;;;;15.60;75.08;101363.22;5045196;28;20056;-48
2022/05/25 08:44:42;;;;;;;12.20;4.15;;;;;;;15.75;75.55;101369.44;5031626;28;20472;-47
2022/05/25 08:47:30;;;;;;;14.40;4.75;;;;;;;15.55;72.78;101359.41;5034341;28;20053;-48
2022/05/25 08:50:03;;;;;;;9.20;4.55;;;;;;;15.50;73.27;101366.88;5043561;28;20044;-44
2022/05/25 08:52:56;;;;;;;9.18;4.22;;;;;;;15.54;74.57;101365.22;5053208;28;20049;-46
2022/05/25 08:56:11;;;;;;;9.43;4.45;;;;;;;15.39;74.02;101362.59;5043496;28;20053;-47
2022/05/25 08:59:12;;;;;;;9.07;4.13;;;;;;;15.33;73.84;101359.88;5034649;28;20053;-46
2022/05/25 09:02:12;;;;;;;9.95;4.10;;;;;;;15.45;74.33;101353.22;5034242;28;20496;-47
2022/05/25 09:05:26;;;;;;;10.65;3.95;;;;;;;15.80;74.51;101354.00;5035045;28;20447;-47
2022/05/25 09:08:38;;;;;;;7.43;3.35;;;;;;;15.90;75.69;101359.41;5033256;28;20543;-49
2022/05/25 09:11:57;;;;;;;9.45;3.75;;;;;;;15.64;70.32;101370.59;5034959;28;20049;-48
2022/05/25 09:15:09;;;;;;;8.52;3.30;;;;;;;15.42;69.74;101362.03;5033909;28;20059;-47
2022/05/25 09:17:47;;;;;;;8.75;3.47;;;;;;;15.37;69.96;101357.41;5053088;28;20041;-48
2022/05/25 09:20:17;;;;;;;10.18;3.03;;;;;;;15.34;69.75;101367.03;5053046;28;20453;-45
2022/05/25 09:22:50;;;;;;;9.68;3.00;;;;;;;15.41;67.86;101374.91;5034434;28;20048;-45
2022/05/25 09:25:18;;;;;;;10.82;3.17;;;;;;;15.67;72.99;101367.28;5034701;28;20036;-46
2022/05/25 09:28:13;;;;;;;7.35;2.75;;;;;;;15.77;72.00;101372.69;5052468;28;20041;-46
2022/05/25 09:30:42;;;;;;;7.38;2.72;;;;;;;15.96;67.18;101371.97;5046160;28;20163;-47
2022/05/25 09:33:31;;;;;;;8.63;2.67;;;;;;;15.81;66.52;101372.16;5036496;28;20047;-47
2022/05/25 09:36:20;;;;;;;8.02;2.70;;;;;;;15.81;68.70;101372.16;5052641;28;20094;-48
2022/05/25 09:39:27;;;;;;;7.30;2.75;;;;;;;15.75;65.63;101377.69;5015771;28;20094;-47
2022/05/25 09:42:19;;;;;;;7.55;3.03;;;;;;;15.70;65.17;101382.41;5039015;28;20056;-48
2022/05/25 09:44:52;;;;;;;7.35;3.05;;;;;;;15.57;65.92;101381.13;5032884;28;20132;-48
2022/05/25 09:47:46;;;;;;;4.75;2.40;;;;;;;15.58;66.47;101385.47;5033347;28;20095;-48
2022/05/25 09:50:36;;;;;;;4.90;2.20;;;;;;;15.70;66.24;101394.19;5035006;28;20053;-50
2022/05/25 09:53:36;;;;;;;5.75;2.20;;;;;;;15.63;64.09;101395.59;5036223;28;20472;-49
2022/05/25 09:56:19;;;;;;;5.63;2.25;;;;;;;15.59;63.36;101395.38;5036442;28;20068;-47
2022/05/25 09:59:14;;;;;;;7.18;2.15;;;;;;;15.61;63.77;101397.81;5037313;28;20051;-52
2022/05/25 10:01:54;;;;;;;6.30;2.40;;;;;;;16.03;61.74;101391.69;5022926;28;20056;-50
2022/05/25 10:04:51;;;;;;;9.20;2.42;;;;;;;15.92;59.00;101395.66;5044425;28;20073;-51
2022/05/25 10:08:00;;;;;;;9.98;3.10;;;;;;;16.11;64.00;101393.78;5039208;28;20132;-49
2022/05/25 10:10:56;;;;;;;11.32;4.22;;;;;;;16.25;61.71;101395.88;5034761;28;20050;-48
2022/05/25 10:13:44;;;;;;;27.35;8.23;;;;;;;16.48;70.51;101380.47;5033241;28;20049;-43
2022/05/25 10:16:31;;;;;;;5.97;2.65;;;;;;;16.60;60.39;101389.13;5048537;28;20522;-43
2022/05/25 10:19:21;;;;;;;7.32;2.58;;;;;;;16.56;60.41;101399.06;5050003;28;20051;-46
2022/05/25 10:22:37;;;;;;;4.38;2.25;;;;;;;16.53;58.51;101394.97;5031656;28;20408;-47
2022/05/25 10:25:40;;;;;;;7.80;2.50;;;;;;;16.42;58.71;101392.66;5034007;28;20132;-47
2022/05/25 10:28:35;;;;;;;5.53;2.25;;;;;;;16.40;58.00;101398.44;5034104;28;20042;-48
2022/05/25 10:37:55;;;;;;;7.80;3.05;;;;;;;16.81;56.81;101381.41;5046492;28;20412;-51
2022/05/25 10:40:45;;;;;;;8.75;3.50;;;;;;;16.89;59.21;101383.53;5050172;28;20091;-50
2022/05/25 10:43:42;;;;;;;8.48;2.80;;;;;;;17.03;58.01;101369.84;5052610;28;20060;-51
2022/05/25 10:46:10;;;;;;;12.43;4.57;;;;;;;17.09;58.84;101365.88;5052925;28;20132;-47
2022/05/25 10:49:17;;;;;;;9.68;3.08;;;;;;;17.09;63.13;101354.06;5046883;28;20045;-48
2022/05/25 10:51:54;;;;;;;10.48;3.35;;;;;;;17.17;64.84;101359.72;5032943;28;20041;-47
2022/05/25 10:54:52;;;;;;;12.93;4.45;;;;;;;17.64;57.06;101354.25;4329771;28;10000774;-48
2022/05/25 10:57:40;;;;;;;5.10;1.60;;;;;;;17.54;52.55;101358.00;5028779;28;20103;-50
2022/05/25 11:00:18;;;;;;;6.95;2.40;;;;;;;17.45;54.55;101355.09;5041122;28;20045;-49
2022/05/25 11:03:20;;;;;;;5.93;1.85;;;;;;;17.27;52.05;101358.75;5031209;28;20141;-51
2022/05/25 11:06:15;;;;;;;4.35;1.50;;;;;;;17.25;51.79;101358.22;5014349;28;20104;-51
2022/05/25 11:09:15;;;;;;;4.10;1.50;;;;;;;17.17;50.54;101361.63;5020350;28;20053;-48
2022/05/25 11:12:01;;;;;;;10.13;3.00;;;;;;;17.20;57.51;101363.81;5028420;28;20156;-47
2022/05/25 11:14:51;;;;;;;11.00;3.00;;;;;;;17.16;52.39;101362.75;5040428;28;20053;-50
2022/05/25 11:18:18;;;;;;;6.32;2.00;;;;;;;17.03;52.17;101362.41;5042700;28;20052;-49
2022/05/25 11:21:36;;;;;;;5.70;2.00;;;;;;;16.97;51.56;101360.00;5022279;28;20057;-50
2022/05/25 11:24:51;;;;;;;4.80;1.50;;;;;;;16.98;53.50;101354.22;5038387;28;20551;-49
2022/05/25 11:27:51;;;;;;;6.72;2.40;;;;;;;17.17;53.48;101354.22;5043988;28;20071;-49
2022/05/25 11:30:29;;;;;;;7.07;2.50;;;;;;;17.50;53.81;101356.16;5041020;28;20488;-45
2022/05/25 11:33:32;;;;;;;6.82;2.67;;;;;;;17.70;56.38;101354.97;5041477;28;20409;-49
2022/05/25 11:36:57;;;;;;;6.35;2.58;;;;;;;17.81;60.90;101351.75;5033365;28;20135;-49
2022/05/25 11:40:06;;;;;;;5.97;1.52;;;;;;;17.71;50.23;101351.91;5033974;28;20053;-51
2022/05/25 11:42:55;;;;;;;8.45;2.67;;;;;;;17.56;52.55;101349.44;5033105;28;20499;-48
2022/05/25 11:46:15;;;;;;;12.70;2.97;;;;;;;17.43;51.54;101345.50;5044431;28;20052;-47
2022/05/25 11:49:15;;;;;;;7.68;2.22;;;;;;;17.38;51.84;101340.09;5031137;28;20633;-51
2022/05/25 11:52:35;;;;;;;5.35;1.98;;;;;;;17.64;61.64;101338.53;5031860;28;20454;-49
2022/05/25 11:55:27;;;;;;;3.70;1.88;;;;;;;17.91;57.70;101344.44;5036079;28;20081;-48
2022/05/25 11:58:21;;;;;;;4.65;1.60;;;;;;;17.74;50.07;101345.78;5032670;28;20053;-48
2022/05/25 12:01:14;;;;;;;8.32;1.45;;;;;;;17.67;49.74;101348.13;5031102;28;20044;-48
2022/05/25 12:03:53;;;;;;;6.10;1.58;;;;;;;17.61;47.48;101363.94;5030485;28;20069;-50
2022/05/25 12:06:33;;;;;;;4.35;1.70;;;;;;;17.51;48.38;101355.03;5031233;28;20045;-46
2022/05/25 12:09:19;;;;;;;4.78;1.80;;;;;;;17.36;48.99;101353.34;5030697;28;20034;-46
2022/05/25 12:12:09;;;;;;;7.28;1.40;;;;;;;17.27;49.38;101355.97;5030269;28;20046;-49
2022/05/25 12:14:48;;;;;;;4.05;1.80;;;;;;;17.29;50.34;101353.72;5031359;28;20046;-47
2022/05/25 12:17:35;;;;;;;9.10;2.70;;;;;;;17.31;55.74;101359.75;4998778;28;20072;-46
2022/05/25 12:20:09;;;;;;;6.57;2.03;;;;;;;17.25;51.18;101355.47;5034097;28;20042;-48
2022/05/25 12:23:00;;;;;;;4.63;1.63;;;;;;;17.26;51.26;101359.84;5027150;28;20037;-47
2022/05/25 12:25:28;;;;;;;7.22;2.15;;;;;;;17.53;52.00;101361.88;5035523;28;20049;-48
2022/05/25 12:28:11;;;;;;;6.72;2.00;;;;;;;17.70;52.42;101354.97;5005471;28;20488;-47
2022/05/25 12:30:44;;;;;;;4.88;2.00;;;;;;;17.78;58.24;101355.09;5042399;28;20065;-49
2022/05/25 12:33:32;;;;;;;8.43;2.08;;;;;;;17.85;50.35;101352.78;5045827;28;20452;-50
2022/05/25 12:36:21;;;;;;;5.07;1.67;;;;;;;17.72;49.50;101356.31;5035024;28;20050;-46
2022/05/25 12:38:49;;;;;;;3.13;1.50;;;;;;;17.61;50.30;101363.13;5001143;28;20070;-48
2022/05/25 12:41:39;;;;;;;3.08;1.45;;;;;;;17.54;50.30;101362.72;5035195;28;20041;-50
2022/05/25 12:51:39;;;;;;;6.10;1.98;;;;;;;17.48;47.95;101370.22;5044134;28;20707;-49
2022/05/25 12:54:32;;;;;;;3.83;1.70;;;;;;;17.55;55.04;101356.06;5037896;28;20048;-47
2022/05/25 12:57:24;;;;;;;4.07;1.50;;;;;;;17.55;49.49;101356.06;5034340;28;20054;-47
2022/05/25 13:00:21;;;;;;;6.28;1.80;;;;;;;17.53;49.47;101361.88;5051099;28;20049;-48
2022/05/25 13:02:53;;;;;;;2.85;1.55;;;;;;;17.44;49.18;101372.78;5048371;28;20132;-48
2022/05/25 13:05:43;;;;;;;12.38;1.80;;;;;;;17.44;51.79;101370.03;5036058;28;20038;-47
2022/05/25 13:08:49;;;;;;;4.90;1.60;;;;;;;17.41;48.50;101367.03;5036365;28;20042;-48
2022/05/25 13:11:48;;;;;;;5.95;1.52;;;;;;;17.38;48.92;101365.69;5043324;28;20484;-46
2022/05/25 13:14:20;;;;;;;5.43;1.58;;;;;;;17.44;49.08;101367.25;5052065;28;20041;-48
2022/05/25 13:16:51;;;;;;;5.28;1.88;;;;;;;17.46;48.95;101370.53;5021495;28;20080;-46
2022/05/25 13:19:39;;;;;;;5.18;1.58;;;;;;;17.55;48.54;101375.34;5049793;28;20041;-50